x

Tanner Bank - 121nm West Of San Diego, Ca (46047) Wave Buoy

8:50am - Mon 27th Apr 2015 All times are PDT. -7 hours from GMT.

  • Sig Wave height 8.5ft
  • Swell Direction
  • Peak Period 8s
  • Average Period 7s
  • Wind
    9mph, 11mph gusts
  • Sea Temp 61°f
  • 空気 Temp 60°f
  • Sea Pressure 1014.1mb
  • Tanner Bank - 121nm West Of San Diego, Ca
  • Tanner Bank - 121nm West Of San Diego, Ca

More Historic Weather Station data

Upgrade to MSW Pro to gain access to the past 30 days of data for over 8000 Wavebouys and Weather Stations around the globe.

Join Pro

Comparision Forecast

View Surf forecast
   
Mon 04/27 8:50am 8.5ft 8s 7s 9 11 mph 1014.1mb 61f 60f
7:50am 9ft 9s 7s 11 13 mph 1013.5mb 61f 59f
6:50am 9ft 9s 7s 11 13 mph 1013.1mb 61f 59f
5:50am 9ft 9s 7s 11 13 mph 1012.6mb 61f 59f
4:50am 9.5ft 8s 7s 13 16 mph 1012.6mb 61f 59f
3:50am 10ft 9s 7s 13 18 mph 1012.9mb 61f 59f
2:50am 11ft 9s 7s 18 20 mph 1012.5mb 61f 59f
1:50am  -   -   -  22 27 mph 1012.8mb 61f 59f
12:50am 12ft 9s 7s 22 27 mph 1013.4mb 61f 60f
Sun 04/26 11:50pm  -   -   -  25 29 mph 1013.9mb 61f 59f
10:50pm 12ft 9s 7s 27 36 mph 1013.6mb 61f 59f
9:50pm  -   -   -  25 29 mph 1014.3mb 61f 59f
8:50pm 12ft 10s 7s 25 29 mph 1014.7mb 61f 59f
7:50pm  -   -   -  25 31 mph 1014.5mb 60f 59f
6:50pm  -   -   -  25
mph
1014.4mb - 59f
5:50pm 12.5ft 10s 7s 25 31 mph 1014.7mb 60f 59f
4:50pm 11.5ft 8s 7s 25 29 mph 1015.2mb 60f 59f
3:50pm 12ft 9s 7s 25 29 mph 1016mb 60f 59f
2:50pm 13ft 10s 7s 27 31 mph 1016.7mb 60f 58f
1:50pm 13ft 9s 7s 27 29 mph 1017mb 60f 58f
12:50pm  -   -   -  27 31 mph 1017.2mb 60f 58f
11:50am 13ft 10s 7s 22 27 mph 1018mb 60f 58f
10:50am 14ft 9s 7s 22 29 mph 1018.1mb 60f 58f
9:50am 14ft 9s 7s 27 36 mph 1017.2mb 60f 58f
8:50am 16ft 9s 8s 31 38 mph 1016.3mb 60f 58f
7:50am 15ft 9s 7s 34 40 mph 1015.4mb 60f 58f
6:50am 13.5ft 9s 7s 29 38 mph 1015.5mb 61f 58f
5:50am 14ft 8s 7s 34 43 mph 1014.8mb 61f 58f
4:50am  -   -   -  31 38 mph 1014.6mb 61f 58f
3:50am 14ft 8s 7s 31 38 mph 1014.4mb 61f 58f
2:50am  -   -   -  34 43 mph 1014.7mb 62f 58f
1:50am 12ft 8s 7s 29 38 mph 1015.3mb 62f 59f
12:50am  -   -   -  29 34 mph 1016mb 62f 58f
Sat 04/25 11:50pm 11ft 8s 6s 31 36 mph 1016.2mb 62f 59f
10:50pm 10ft 7s 6s 29 36 mph 1016.2mb 62f 59f
9:50pm 10ft 7s 6s 27 34 mph 1016.4mb 62f 60f
8:50pm 9.5ft 15s 6s 27 34 mph 1015.8mb 62f 60f
7:50pm 8.5ft 15s 6s 27 31 mph 1015.3mb 61f 60f
6:50pm  -   -   -  27
mph
1015mb - 60f
5:50pm 7ft 15s 6s 25 31 mph 1014.9mb 61f 61f
4:50pm 7ft 15s 6s 25 29 mph 1015.2mb 61f 61f
3:50pm 7ft 16s 7s 22 29 mph 1015.7mb 61f 61f
2:50pm 7ft 16s 7s 20 22 mph 1016.7mb 61f 61f
1:50pm 6.5ft 16s 6s 20 25 mph 1017mb 60f 61f
12:50pm 7ft 16s 7s 18 20 mph 1017.5mb 60f 61f
11:50am 6.5ft 7s 6s 16 20 mph 1018.1mb 60f 61f
10:50am 7ft 7s 6s 18 22 mph 1018mb 60f 60f
9:50am 7.5ft 7s 6s 20 25 mph 1017.4mb 60f 60f
8:50am 8ft 7s 6s 22 27 mph 1017.2mb 60f 60f
7:50am 7ft 8s 6s 22 25 mph 1016.9mb 60f 60f
6:50am 7ft 7s 6s 22 25 mph 1016.6mb 60f 59f
5:50am 8ft 7s 6s 22 27 mph 1016.2mb 60f 59f
4:50am 7ft 7s 6s 25 29 mph 1016.3mb 60f 59f
3:50am 8ft 8s 6s 22 27 mph 1016.2mb 60f 58f
2:50am 7ft 6s 6s 20 25 mph 1016.5mb 60f 59f
1:50am 7ft 9s 6s 20 25 mph 1017mb 60f 58f
12:50am 7ft 9s 6s 20 25 mph 1017.2mb 60f 58f
Fri 04/24 11:50pm 7ft 11s 6s 20 25 mph 1017.2mb 60f 58f
10:50pm 7ft 11s 6s 22 27 mph 1017.6mb 60f 59f
9:50pm  -   -   -  20 25 mph 1017.7mb 60f 59f
8:50pm 7.5ft 11s 6s 20 25 mph 1017.1mb 61f 59f
7:50pm 8ft 11s 7s 20 22 mph 1016.4mb 61f 59f
6:50pm  -   -   -  20 25 mph 1016.4mb 61f 59f
5:50pm 8ft 11s 7s 18 22 mph 1016.6mb 60f 60f
4:50pm 8ft 11s 7s 18 20 mph 1016.5mb 61f 59f
3:50pm  -   -   -  18 22 mph 1016.5mb 60f 59f
2:50pm 8.5ft 9s 6s 22 27 mph 1016.9mb 60f 59f
1:50pm  -   -   -  22 27 mph 1017.1mb 60f 59f
12:50pm 7ft 11s 6s 22 29 mph 1017.2mb 60f 59f
11:50am 7ft 11s 6s 18 22 mph 1017.5mb 60f 57f
10:50am 7.5ft 11s 7s 20 25 mph 1017.3mb 60f 58f
9:50am 8ft 11s 7s 13 16 mph 1016.9mb 61f 58f
8:50am 8ft 12s 7s 16 20 mph 1016.5mb 61f 58f
7:50am 8ft 11s 7s 16 20 mph 1016.1mb 61f 58f
6:50am  -   -   -  18 20 mph 1015.5mb 61f 58f
5:50am  -   -   -  18 22 mph 1014.8mb 61f 58f
4:50am 8.5ft 11s 7s 16 20 mph 1014.3mb 61f 58f
3:50am  -   -   -  18 22 mph 1014.3mb 61f 58f
2:50am 8.5ft 12s 7s 16 20 mph 1014.3mb 61f 58f
1:50am 9.5ft 12s 8s 18 22 mph 1014.5mb 61f 58f
12:50am 9ft 11s 7s 18 25 mph 1014.6mb 61f 58f
Thu 04/23 11:50pm  -   -   -  20 25 mph 1014.8mb 61f 58f
10:50pm 8.5ft 12s 7s 18 22 mph 1014.9mb 61f 58f
9:50pm 8ft 11s 7s 18 22 mph 1014.9mb 61f 58f
8:50pm 9ft 12s 8s 16 20 mph 1014.3mb 61f 57f
7:50pm 8ft 12s 7s 18 25 mph 1013.6mb 61f 57f
6:50pm 9ft 12s 8s 18 20 mph 1013.3mb 61f 58f
5:50pm 8ft 12s 8s 16 20 mph 1013.2mb 61f 58f
4:50pm 8ft 13s 8s 16 18 mph 1013.1mb 61f 58f